createdAt,value
2022-08-16T00:00:04.319Z,100270
2022-08-16T00:05:00.372Z,100270
2022-08-16T00:10:00.289Z,100280
2022-08-16T00:15:00.182Z,100250
2022-08-16T00:20:00.192Z,100280
2022-08-16T00:25:00.183Z,100290
2022-08-16T00:30:08.355Z,100250
2022-08-16T00:35:00.525Z,100280
2022-08-16T00:40:00.268Z,100270
2022-08-16T00:45:00.154Z,100280
2022-08-16T00:50:00.218Z,100280
2022-08-16T00:55:00.184Z,100280
2022-08-16T01:00:00.208Z,100270
2022-08-16T01:05:09.438Z,100260
2022-08-16T01:10:00.179Z,100280
2022-08-16T01:15:00.166Z,100270
2022-08-16T01:20:00.177Z,100260
2022-08-16T01:25:00.172Z,100270
2022-08-16T01:30:00.294Z,100290
2022-08-16T01:35:00.178Z,100250
2022-08-16T01:40:00.349Z,100280
2022-08-16T01:45:00.179Z,100260
2022-08-16T01:50:42.507Z,100280
2022-08-16T01:55:00.183Z,100270
2022-08-16T02:00:00.227Z,100290
2022-08-16T02:05:00.218Z,100270
2022-08-16T02:10:01.962Z,100260
2022-08-16T02:15:00.298Z,100260
2022-08-16T02:20:00.905Z,100270
2022-08-16T02:25:00.147Z,100280
2022-08-16T02:30:05.314Z,100260
2022-08-16T02:35:00.150Z,100270
2022-08-16T02:40:00.275Z,100260
2022-08-16T02:45:00.161Z,100270
2022-08-16T02:50:52.563Z,100290
2022-08-16T02:55:00.197Z,100270
2022-08-16T03:00:01.316Z,100280
2022-08-16T03:05:00.183Z,100280
2022-08-16T03:10:00.830Z,100270
2022-08-16T03:15:00.190Z,100290
2022-08-16T03:20:02.882Z,100280
2022-08-16T03:25:00.918Z,100250
2022-08-16T03:30:00.203Z,100240
2022-08-16T03:35:00.214Z,100260
2022-08-16T03:40:03.404Z,100270
2022-08-16T03:45:03.338Z,100270
2022-08-16T03:50:00.207Z,100280
2022-08-16T03:55:00.206Z,100280
2022-08-16T04:00:00.264Z,100290
2022-08-16T04:05:00.176Z,100280
2022-08-16T04:10:00.192Z,100280
2022-08-16T04:15:00.200Z,100270
2022-08-16T04:20:00.192Z,100300
2022-08-16T04:25:00.181Z,100300
2022-08-16T04:30:02.927Z,100310
2022-08-16T04:35:03.455Z,100290
2022-08-16T04:40:00.259Z,100310
2022-08-16T04:45:01.986Z,100310
2022-08-16T04:50:00.207Z,100310
2022-08-16T04:55:00.183Z,100320
2022-08-16T05:00:30.597Z,100340
2022-08-16T05:05:00.204Z,100330
2022-08-16T05:10:00.209Z,100350
2022-08-16T05:15:02.596Z,100340
2022-08-16T05:20:00.200Z,100330
2022-08-16T05:25:00.207Z,100340
2022-08-16T05:30:34.015Z,100350
2022-08-16T05:35:00.284Z,100360
2022-08-16T05:40:00.298Z,100360
2022-08-16T05:45:00.206Z,100350
2022-08-16T05:50:00.201Z,100330
2022-08-16T05:55:01.476Z,100330
2022-08-16T06:00:04.438Z,100330
2022-08-16T06:05:00.186Z,100350
2022-08-16T06:10:00.380Z,100340
2022-08-16T06:15:00.211Z,100360
2022-08-16T06:20:00.213Z,100340
2022-08-16T06:25:00.625Z,100350
2022-08-16T06:30:00.206Z,100360
2022-08-16T06:35:02.429Z,100360
2022-08-16T06:40:00.327Z,100360
2022-08-16T06:45:00.177Z,100360
2022-08-16T06:50:00.205Z,100380
2022-08-16T06:55:00.204Z,100380
2022-08-16T07:00:00.239Z,100360
2022-08-16T07:05:00.217Z,100350
2022-08-16T07:10:00.196Z,100370
2022-08-16T07:15:00.828Z,100360
2022-08-16T07:20:03.235Z,100380
2022-08-16T07:25:00.204Z,100360
2022-08-16T07:30:00.219Z,100370
2022-08-16T07:35:00.227Z,100400
2022-08-16T07:40:00.299Z,100380
2022-08-16T07:45:00.191Z,100380
2022-08-16T07:50:00.205Z,100390
2022-08-16T07:55:00.198Z,100410
2022-08-16T08:00:00.240Z,100420
2022-08-16T08:05:00.193Z,100420
2022-08-16T08:10:00.210Z,100420
2022-08-16T08:15:00.202Z,100420
2022-08-16T08:20:00.207Z,100420
2022-08-16T08:25:03.608Z,100420
2022-08-16T08:30:50.481Z,100430
2022-08-16T08:35:03.576Z,100430
2022-08-16T08:40:00.270Z,100430
2022-08-16T08:45:00.188Z,100420
2022-08-16T08:50:00.210Z,100430
2022-08-16T08:55:00.215Z,100420
2022-08-16T09:00:00.239Z,100440
2022-08-16T09:05:00.181Z,100430
2022-08-16T09:10:00.894Z,100420
2022-08-16T09:15:00.217Z,100420
2022-08-16T09:20:02.859Z,100390
2022-08-16T09:25:10.099Z,100420
2022-08-16T09:30:02.581Z,100420
2022-08-16T09:35:00.219Z,100430
2022-08-16T09:45:13.190Z,100440
2022-08-16T09:50:00.199Z,100400
2022-08-16T09:55:00.210Z,100420
2022-08-16T10:00:00.298Z,100420
2022-08-16T10:05:00.271Z,100450
2022-08-16T10:10:00.217Z,100430
2022-08-16T10:15:00.204Z,100440
2022-08-16T10:20:00.194Z,100430
2022-08-16T10:25:00.346Z,100440
2022-08-16T10:30:07.146Z,100430
2022-08-16T10:35:00.189Z,100440
2022-08-16T10:40:00.282Z,100450
2022-08-16T10:45:00.190Z,100460
2022-08-16T10:50:00.245Z,100460
2022-08-16T10:55:41.062Z,100470
2022-08-16T11:00:01.283Z,100460
2022-08-16T11:05:08.332Z,100440
2022-08-16T11:10:19.837Z,100440
2022-08-16T11:15:17.140Z,100480
2022-08-16T11:20:01.089Z,100480
2022-08-16T11:25:15.151Z,100460
2022-08-16T11:30:00.208Z,100470
2022-08-16T11:35:10.855Z,100480
2022-08-16T11:40:00.374Z,100470
2022-08-16T11:45:00.174Z,100470
2022-08-16T11:50:00.231Z,100480
2022-08-16T11:55:00.496Z,100470
2022-08-16T12:00:00.245Z,100480
2022-08-16T12:05:00.891Z,100470
2022-08-16T12:10:00.221Z,100490
2022-08-16T12:15:00.585Z,100500
2022-08-16T12:20:00.237Z,100490
2022-08-16T12:25:00.219Z,100500
2022-08-16T12:30:00.202Z,100490
2022-08-16T12:35:00.197Z,100510
2022-08-16T12:40:00.411Z,100510
2022-08-16T12:45:00.190Z,100500
2022-08-16T12:50:00.201Z,100500
2022-08-16T12:55:00.198Z,100510
2022-08-16T13:00:00.240Z,100480
2022-08-16T13:05:00.205Z,100530
2022-08-16T13:10:02.525Z,100520
2022-08-16T13:15:00.215Z,100520
2022-08-16T13:20:08.922Z,100540
2022-08-16T13:25:00.209Z,100530
2022-08-16T13:30:00.219Z,100530
2022-08-16T13:35:01.068Z,100530
2022-08-16T13:40:00.319Z,100520
2022-08-16T13:45:00.213Z,100510
2022-08-16T13:50:00.204Z,100530
2022-08-16T13:55:00.195Z,100530
2022-08-16T14:00:00.225Z,100520
2022-08-16T14:05:05.277Z,100530
2022-08-16T14:10:00.177Z,100530
2022-08-16T14:15:00.191Z,100550
2022-08-16T14:20:00.247Z,100530
2022-08-16T14:25:00.193Z,100520
2022-08-16T14:30:00.188Z,100510
2022-08-16T14:35:00.224Z,100540
2022-08-16T14:40:00.392Z,100540
2022-08-16T14:45:00.470Z,100530
2022-08-16T14:50:00.201Z,100550
2022-08-16T14:55:00.218Z,100540
2022-08-16T15:00:05.507Z,100540
2022-08-16T15:05:00.280Z,100530
2022-08-16T15:10:01.926Z,100530
2022-08-16T15:15:00.189Z,100530
2022-08-16T15:20:00.194Z,100520
2022-08-16T15:25:00.202Z,100510
2022-08-16T15:30:00.206Z,100530
2022-08-16T15:35:03.409Z,100520
2022-08-16T15:40:00.298Z,100520
2022-08-16T15:45:00.196Z,100530
2022-08-16T15:50:00.220Z,100540
2022-08-16T15:55:00.364Z,100530
2022-08-16T16:00:04.831Z,100550
2022-08-16T16:05:00.834Z,100550
2022-08-16T16:10:00.309Z,100560
2022-08-16T16:15:00.210Z,100570
2022-08-16T16:20:00.521Z,100570
2022-08-16T16:25:00.186Z,100570
2022-08-16T16:30:01.922Z,100550
2022-08-16T16:35:00.230Z,100590
2022-08-16T16:40:00.345Z,100560
2022-08-16T16:45:01.543Z,100570
2022-08-16T16:50:00.222Z,100590
2022-08-16T16:55:00.172Z,100590
2022-08-16T17:00:00.224Z,100580
2022-08-16T17:05:00.188Z,100590
2022-08-16T17:10:00.198Z,100610
2022-08-16T17:15:00.209Z,100610
2022-08-16T17:20:00.199Z,100590
2022-08-16T17:25:00.191Z,100590
2022-08-16T17:30:00.265Z,100600
2022-08-16T17:35:00.469Z,100610
2022-08-16T17:40:04.119Z,100590
2022-08-16T17:45:00.185Z,100590
2022-08-16T17:50:00.191Z,100590
2022-08-16T17:55:00.196Z,100600
2022-08-16T18:00:00.225Z,100630
2022-08-16T18:05:00.200Z,100580
2022-08-16T18:10:00.184Z,100610
2022-08-16T18:15:00.478Z,100600
2022-08-16T18:20:00.186Z,100600
2022-08-16T18:25:00.206Z,100620
2022-08-16T18:30:00.192Z,100620
2022-08-16T18:35:00.184Z,100630
2022-08-16T18:40:00.875Z,100630
2022-08-16T18:45:00.166Z,100630
2022-08-16T18:50:00.192Z,100620
2022-08-16T18:55:03.096Z,100620
2022-08-16T19:00:00.242Z,100620
2022-08-16T19:05:00.168Z,100640
2022-08-16T19:10:00.202Z,100650
2022-08-16T19:15:00.197Z,100630
2022-08-16T19:20:00.204Z,100650
2022-08-16T19:25:00.182Z,100670
2022-08-16T19:30:00.186Z,100680
2022-08-16T19:35:00.189Z,100670
2022-08-16T19:40:00.342Z,100650
2022-08-16T19:45:00.167Z,100690
2022-08-16T19:50:00.226Z,100690
2022-08-16T19:55:00.196Z,100700
2022-08-16T20:00:00.260Z,100690
2022-08-16T20:05:00.175Z,100720
2022-08-16T20:10:00.208Z,100710
2022-08-16T20:15:00.201Z,100720
2022-08-16T20:20:00.177Z,100710
2022-08-16T20:25:00.149Z,100730
2022-08-16T20:30:00.188Z,100730
2022-08-16T20:35:00.203Z,100720
2022-08-16T20:40:28.069Z,100720
2022-08-16T20:45:00.178Z,100760
2022-08-16T20:50:00.196Z,100750
2022-08-16T20:55:00.155Z,100760
2022-08-16T21:00:00.224Z,100760
2022-08-16T21:05:00.183Z,100750
2022-08-16T21:10:00.245Z,100780
2022-08-16T21:15:00.170Z,100780
2022-08-16T21:20:00.189Z,100770
2022-08-16T21:25:00.192Z,100790
2022-08-16T21:30:00.204Z,100770
2022-08-16T21:35:00.163Z,100770
2022-08-16T21:40:00.310Z,100780
2022-08-16T21:45:00.157Z,100760
2022-08-16T21:50:00.176Z,100750
2022-08-16T21:55:00.177Z,100760
2022-08-16T22:00:00.293Z,100770
2022-08-16T22:05:00.152Z,100760
2022-08-16T22:10:00.188Z,100770
2022-08-16T22:15:00.176Z,100750
2022-08-16T22:20:00.177Z,100770
2022-08-16T22:25:00.147Z,100760
2022-08-16T22:30:00.190Z,100750
2022-08-16T22:35:11.617Z,100740
2022-08-16T22:40:00.349Z,100770
2022-08-16T22:45:00.206Z,100730
2022-08-16T22:50:00.158Z,100790
2022-08-16T22:55:00.187Z,100750
2022-08-16T23:00:00.243Z,100760
2022-08-16T23:05:00.179Z,100760
2022-08-16T23:10:00.200Z,100760
2022-08-16T23:15:00.183Z,100750
2022-08-16T23:20:00.212Z,100760
2022-08-16T23:25:00.180Z,100780
2022-08-16T23:30:00.218Z,100760
2022-08-16T23:35:00.174Z,100740
2022-08-16T23:40:00.293Z,100740
2022-08-16T23:45:00.197Z,100770
2022-08-16T23:50:03.851Z,100730
2022-08-16T23:55:00.203Z,100720
